KMCC/MCC METAR and TAF weather

Enter ICAO airport designator
Station Type Date Time Source
KMCC METAR 2021/01/20 21:55 UTC NOAA

KMCC 202155Z AUTO 30004KT 10SM CLR 17/M04 A3008 RMK AO2


Station Type Date Time Source
KMCC Decoded METAR 2021/01/20 21:55 UTC NOAA

Sacramento, McClellan Airfield Airport, CA, United States (KMCC) 38-40N 121-24W
Jan 20, 2021 - 04:55 PM EST / 2021.01.20 2155 UTC
Wind: from the WNW (300 degrees) at 5 MPH (4 KT):0
Visibility: 10 mile(s):0
Sky conditions: clear
Temperature: 62 F (17 C)
Dew Point: 24 F (-4 C)
Relative Humidity: 23%
Pressure (altimeter): 30.08 in. Hg (1018 hPa)
ob: KMCC 202155Z AUTO 30004KT 10SM CLR 17/M04 A3008 RMK AO2
cycle: 22

Station Type Date Time Source
KMCC TAF 2021/01/20 18:42 UTC NOAA

TAF KMCC 201737Z 2018/2118 VRB04KT P6SM SKC

Example: see airport list